createdAt,value
2018-04-15T00:00:49.597Z,48.97
2018-04-15T00:02:52.326Z,48.67
2018-04-15T00:04:55.063Z,47.90
2018-04-15T00:06:57.822Z,47.83
2018-04-15T00:09:00.688Z,49.50
2018-04-15T00:11:03.440Z,48.20
2018-04-15T00:13:06.156Z,51.60
2018-04-15T00:15:08.899Z,46.53
2018-04-15T00:17:11.615Z,52.00
2018-04-15T00:19:14.341Z,49.37
2018-04-15T00:21:17.074Z,47.90
2018-04-15T00:23:19.814Z,48.37
2018-04-15T00:25:22.541Z,52.20
2018-04-15T00:27:25.263Z,49.00
2018-04-15T00:29:28.004Z,46.97
2018-04-15T00:31:30.742Z,48.43
2018-04-15T00:33:33.474Z,48.43
2018-04-15T00:35:36.201Z,47.33
2018-04-15T00:37:38.930Z,45.27
2018-04-15T00:39:41.650Z,49.37
2018-04-15T00:41:44.396Z,45.80
2018-04-15T00:43:47.117Z,46.70
2018-04-15T00:45:49.855Z,46.57
2018-04-15T00:47:52.588Z,44.87
2018-04-15T00:49:55.318Z,45.57
2018-04-15T00:51:58.037Z,46.83
2018-04-15T00:54:06.827Z,47.77
2018-04-15T00:56:10.714Z,46.63
2018-04-15T00:58:14.398Z,45.90
2018-04-15T01:00:17.113Z,44.67
2018-04-15T01:02:20.014Z,44.27
2018-04-15T01:04:22.731Z,43.20
2018-04-15T01:06:25.493Z,42.97
2018-04-15T01:08:28.250Z,43.00
2018-04-15T01:10:30.963Z,44.87
2018-04-15T01:12:33.706Z,47.70
2018-04-15T01:14:36.686Z,45.67
2018-04-15T01:16:39.395Z,44.63
2018-04-15T01:18:42.120Z,44.77
2018-04-15T01:20:44.850Z,45.27
2018-04-15T01:22:47.610Z,42.60
2018-04-15T01:24:50.327Z,43.40
2018-04-15T01:26:53.058Z,43.17
2018-04-15T01:28:55.838Z,47.57
2018-04-15T01:30:58.625Z,43.43
2018-04-15T01:33:01.379Z,42.40
2018-04-15T01:35:04.122Z,45.57
2018-04-15T01:37:06.886Z,41.47
2018-04-15T01:39:09.979Z,43.67
2018-04-15T01:41:12.705Z,90.70
2018-04-15T01:43:15.431Z,51.70
2018-04-15T01:45:18.275Z,98.23
2018-04-15T01:47:21.043Z,56.07
2018-04-15T01:49:23.768Z,45.70
2018-04-15T01:51:26.511Z,43.47
2018-04-15T01:53:29.236Z,43.90
2018-04-15T01:55:31.986Z,44.87
2018-04-15T01:57:34.713Z,42.23
2018-04-15T01:59:37.605Z,43.00
2018-04-15T02:01:40.334Z,42.10
2018-04-15T02:03:43.082Z,43.67
2018-04-15T02:05:45.819Z,45.17
2018-04-15T02:07:48.586Z,41.83
2018-04-15T02:09:51.327Z,42.00
2018-04-15T02:11:54.072Z,41.67
2018-04-15T02:13:56.826Z,44.20
2018-04-15T02:15:59.668Z,41.07
2018-04-15T02:18:02.386Z,45.50
2018-04-15T02:20:05.128Z,42.17
2018-04-15T02:22:07.886Z,41.90
2018-04-15T02:24:10.598Z,41.53
2018-04-15T02:26:13.317Z,43.97
2018-04-15T02:28:16.232Z,39.53
2018-04-15T02:30:18.953Z,43.40
2018-04-15T02:32:21.686Z,41.30
2018-04-15T02:34:24.667Z,41.60
2018-04-15T02:36:27.375Z,44.97
2018-04-15T02:38:30.086Z,41.47
2018-04-15T02:40:32.939Z,40.40
2018-04-15T02:42:35.667Z,42.57
2018-04-15T02:44:38.409Z,41.80
2018-04-15T02:46:41.254Z,41.57
2018-04-15T02:48:43.979Z,43.47
2018-04-15T02:50:46.709Z,40.73
2018-04-15T02:52:49.448Z,41.07
2018-04-15T02:54:52.240Z,54.00
2018-04-15T02:56:55.018Z,104.83
2018-04-15T02:58:57.883Z,121.00
2018-04-15T03:01:00.650Z,226.43
2018-04-15T03:03:03.381Z,112.10
2018-04-15T03:05:06.122Z,63.77
2018-04-15T03:07:08.840Z,50.00
2018-04-15T03:09:11.594Z,46.40
2018-04-15T03:11:14.334Z,47.33
2018-04-15T03:13:17.046Z,47.10
2018-04-15T03:15:19.770Z,45.23
2018-04-15T03:17:22.510Z,45.83
2018-04-15T03:19:25.240Z,43.80
2018-04-15T03:21:27.966Z,45.77
2018-04-15T03:23:30.705Z,42.07
2018-04-15T03:25:33.430Z,43.10
2018-04-15T03:27:36.154Z,43.47
2018-04-15T03:29:38.902Z,83.50
2018-04-15T03:31:41.635Z,83.70
2018-04-15T03:33:44.353Z,109.70
2018-04-15T03:35:47.083Z,56.17
2018-04-15T03:37:49.801Z,56.20
2018-04-15T03:39:52.514Z,43.93
2018-04-15T03:41:55.248Z,46.07
2018-04-15T03:43:57.973Z,43.17
2018-04-15T03:46:00.693Z,42.90
2018-04-15T03:48:03.602Z,41.73
2018-04-15T03:50:06.322Z,44.67
2018-04-15T03:52:09.046Z,45.07
2018-04-15T03:54:12.126Z,45.13
2018-04-15T03:56:14.846Z,41.90
2018-04-15T03:58:17.582Z,43.73
2018-04-15T04:00:20.301Z,43.90
2018-04-15T04:02:23.038Z,41.93
2018-04-15T04:04:25.770Z,42.47
2018-04-15T04:06:28.862Z,42.50
2018-04-15T04:08:31.582Z,43.00
2018-04-15T04:10:34.299Z,42.33
2018-04-15T04:12:37.109Z,39.87
2018-04-15T04:14:39.822Z,41.33
2018-04-15T04:16:42.536Z,40.90
2018-04-15T04:18:51.531Z,40.40
2018-04-15T04:21:00.486Z,39.77
2018-04-15T04:23:09.341Z,38.70
2018-04-15T04:25:18.443Z,37.83
2018-04-15T04:27:21.190Z,38.60
2018-04-15T04:29:23.926Z,42.67
2018-04-15T04:31:26.663Z,42.10
2018-04-15T04:33:29.390Z,41.90
2018-04-15T04:35:32.123Z,42.37
2018-04-15T04:37:34.889Z,44.53
2018-04-15T04:39:37.642Z,40.97
2018-04-15T04:41:40.398Z,41.80
2018-04-15T04:43:44.318Z,41.47
2018-04-15T04:45:47.053Z,41.20
2018-04-15T04:47:49.787Z,42.90
2018-04-15T04:49:52.515Z,42.40
2018-04-15T04:51:55.249Z,41.50
2018-04-15T04:53:57.974Z,47.53
2018-04-15T04:56:00.705Z,48.00
2018-04-15T04:58:03.622Z,51.10
2018-04-15T05:00:06.347Z,45.70
2018-04-15T05:02:09.088Z,46.63
2018-04-15T05:04:11.849Z,44.07
2018-04-15T05:06:14.589Z,45.00
2018-04-15T05:08:17.323Z,42.67
2018-04-15T05:10:20.227Z,43.80
2018-04-15T05:12:22.978Z,40.03
2018-04-15T05:14:25.715Z,42.00
2018-04-15T05:16:28.462Z,44.30
2018-04-15T05:18:31.206Z,43.83
2018-04-15T05:20:33.940Z,43.70
2018-04-15T05:22:36.647Z,42.77
2018-04-15T05:24:39.435Z,42.17
2018-04-15T05:26:45.184Z,43.40
2018-04-15T05:28:48.674Z,42.60
2018-04-15T05:30:54.187Z,41.60
2018-04-15T05:32:59.582Z,38.23
2018-04-15T05:35:02.307Z,38.57
2018-04-15T05:37:03.666Z,37.73
2018-04-15T05:39:06.407Z,39.33
2018-04-15T05:41:09.122Z,42.70
2018-04-15T05:43:11.839Z,43.90
2018-04-15T05:45:14.674Z,39.43
2018-04-15T05:47:17.423Z,40.30
2018-04-15T05:49:20.142Z,39.70
2018-04-15T05:51:22.867Z,41.30
2018-04-15T05:53:25.590Z,42.03
2018-04-15T05:55:28.428Z,37.93
2018-04-15T05:57:31.477Z,41.70
2018-04-15T05:59:34.233Z,41.73
2018-04-15T06:01:36.930Z,39.40
2018-04-15T06:03:39.671Z,39.07
2018-04-15T06:05:42.385Z,40.13
2018-04-15T06:07:45.110Z,41.23
2018-04-15T06:09:47.847Z,39.70
2018-04-15T06:11:51.559Z,38.17
2018-04-15T06:13:54.314Z,37.17
2018-04-15T06:15:57.127Z,38.87
2018-04-15T06:17:59.854Z,38.90
2018-04-15T06:20:02.689Z,36.73
2018-04-15T06:22:05.438Z,37.53
2018-04-15T06:24:08.232Z,38.47
2018-04-15T06:26:10.969Z,39.33
2018-04-15T06:28:13.694Z,38.47
2018-04-15T06:30:16.440Z,41.53
2018-04-15T06:32:19.169Z,38.20
2018-04-15T06:34:21.915Z,41.93
2018-04-15T06:36:24.662Z,39.60
2018-04-15T06:38:27.381Z,39.97
2018-04-15T06:40:30.111Z,41.90
2018-04-15T06:42:32.863Z,42.33
2018-04-15T06:44:35.611Z,40.60
2018-04-15T06:46:38.343Z,39.60
2018-04-15T06:48:41.419Z,39.93
2018-04-15T06:50:44.146Z,38.97
2018-04-15T06:52:47.089Z,38.23
2018-04-15T06:54:49.821Z,39.57
2018-04-15T06:56:52.567Z,38.90
2018-04-15T06:58:55.293Z,37.70
2018-04-15T07:00:58.031Z,38.50
2018-04-15T07:03:02.198Z,37.30
2018-04-15T07:05:07.130Z,40.97
2018-04-15T07:07:10.266Z,40.60
2018-04-15T07:09:13.087Z,39.97
2018-04-15T07:11:15.995Z,37.00
2018-04-15T07:13:18.879Z,39.20
2018-04-15T07:15:21.695Z,38.67
2018-04-15T07:17:24.560Z,40.13
2018-04-15T07:19:28.386Z,40.20
2018-04-15T07:21:31.204Z,38.80
2018-04-15T07:23:33.982Z,37.37
2018-04-15T07:25:36.761Z,40.17
2018-04-15T07:27:39.660Z,43.27
2018-04-15T07:29:42.438Z,41.97
2018-04-15T07:31:46.178Z,38.43
2018-04-15T07:33:48.997Z,39.27
2018-04-15T07:35:51.780Z,43.20
2018-04-15T07:37:54.579Z,44.00
2018-04-15T07:39:57.434Z,38.53
2018-04-15T07:42:00.216Z,38.93
2018-04-15T07:44:02.987Z,44.93
2018-04-15T07:46:05.768Z,43.50
2018-04-15T07:48:08.558Z,37.90
2018-04-15T07:50:11.326Z,36.40
2018-04-15T07:52:14.151Z,38.53
2018-04-15T07:54:17.013Z,36.70
2018-04-15T07:56:19.819Z,37.70
2018-04-15T07:58:22.589Z,37.33
2018-04-15T08:00:25.319Z,39.87
2018-04-15T08:02:28.127Z,39.70
2018-04-15T08:04:31.187Z,40.37
2018-04-15T08:06:34.101Z,40.47
2018-04-15T08:08:36.839Z,37.07
2018-04-15T08:10:39.841Z,37.53
2018-04-15T08:12:42.594Z,41.33
2018-04-15T08:14:45.931Z,38.87
2018-04-15T08:16:48.867Z,39.03
2018-04-15T08:18:51.938Z,41.60
2018-04-15T08:20:54.861Z,38.33
2018-04-15T08:22:57.635Z,38.87
2018-04-15T08:25:01.186Z,38.33
2018-04-15T08:27:03.951Z,39.60
2018-04-15T08:29:06.679Z,39.70
2018-04-15T08:31:09.413Z,38.93
2018-04-15T08:33:12.154Z,38.60
2018-04-15T08:35:15.490Z,37.90
2018-04-15T08:39:40.785Z,61.77
2018-04-15T08:41:43.793Z,40.57
2018-04-15T08:43:46.927Z,40.80
2018-04-15T08:45:49.750Z,40.20
2018-04-15T08:47:52.598Z,40.10
2018-04-15T08:49:55.363Z,43.20
2018-04-15T08:51:58.174Z,40.80
2018-04-15T08:54:00.959Z,40.70
2018-04-15T08:56:03.885Z,42.37
2018-04-15T08:58:06.702Z,40.63
2018-04-15T09:00:09.551Z,44.50
2018-04-15T09:02:12.585Z,41.53
2018-04-15T09:04:15.355Z,45.80
2018-04-15T09:06:18.150Z,44.73
2018-04-15T09:08:20.943Z,38.80
2018-04-15T09:10:23.745Z,41.00
2018-04-15T09:12:26.618Z,40.40
2018-04-15T09:14:29.448Z,42.87
2018-04-15T09:16:32.175Z,39.10
2018-04-15T09:18:34.983Z,41.20
2018-04-15T09:20:37.757Z,39.80
2018-04-15T09:22:40.547Z,41.13
2018-04-15T09:24:44.923Z,41.20
2018-04-15T09:26:47.733Z,43.50
2018-04-15T09:28:50.518Z,41.30
2018-04-15T09:30:59.496Z,42.53
2018-04-15T09:33:02.298Z,41.43
2018-04-15T09:35:05.071Z,41.80
2018-04-15T09:37:07.851Z,42.57
2018-04-15T09:39:10.618Z,39.70
2018-04-15T09:41:13.405Z,41.77
2018-04-15T09:43:16.189Z,39.43
2018-04-15T09:45:18.962Z,41.17
2018-04-15T09:47:21.825Z,41.97
2018-04-15T09:49:24.662Z,67.60
2018-04-15T09:51:27.449Z,44.90
2018-04-15T09:53:30.233Z,38.90
2018-04-15T09:55:33.209Z,41.67
2018-04-15T09:57:35.974Z,43.20
2018-04-15T09:59:38.807Z,42.00
2018-04-15T10:01:41.587Z,41.00
2018-04-15T10:03:44.368Z,40.40
2018-04-15T10:05:47.119Z,39.80
2018-04-15T10:07:50.027Z,42.00
2018-04-15T10:09:52.826Z,41.33
2018-04-15T10:11:55.674Z,41.30
2018-04-15T10:14:14.219Z,42.10
2018-04-15T10:16:25.637Z,41.40
2018-04-15T11:20:00.625Z,39.43
2018-04-15T11:22:13.496Z,39.00
2018-04-15T11:27:00.073Z,37.30
2018-04-15T11:29:05.779Z,38.50
2018-04-15T11:36:32.927Z,38.60
2018-04-15T11:38:36.683Z,35.57
2018-04-15T11:42:57.026Z,36.60
2018-04-15T11:45:00.056Z,36.80
2018-04-15T11:47:20.886Z,37.43
2018-04-15T11:49:23.828Z,35.87
2018-04-15T11:51:29.050Z,36.53
2018-04-15T12:50:42.595Z,36.33
2018-04-15T12:52:46.484Z,37.03
2018-04-15T12:54:51.770Z,38.37
2018-04-15T12:57:15.301Z,36.83
2018-04-15T12:59:18.626Z,35.40
2018-04-15T13:04:08.714Z,35.00
2018-04-15T13:06:13.128Z,41.73
2018-04-15T13:10:39.509Z,36.93
2018-04-15T13:12:44.737Z,37.60
2018-04-15T13:14:46.997Z,37.93
2018-04-15T13:18:57.604Z,36.07
2018-04-15T13:34:22.756Z,38.20
2018-04-15T13:36:26.277Z,40.23
2018-04-15T13:38:41.299Z,35.97
2018-04-15T13:40:47.007Z,37.30
2018-04-15T13:42:52.164Z,37.90
2018-04-15T13:47:14.402Z,38.47
2018-04-15T18:36:48.093Z,33.70
2018-04-15T18:39:00.184Z,33.23
2018-04-15T18:41:14.812Z,36.23
2018-04-15T18:45:41.634Z,36.17
2018-04-15T18:54:01.047Z,33.27
2018-04-15T19:11:21.997Z,37.97
2018-04-15T19:13:46.759Z,38.63
2018-04-15T21:55:11.043Z,49.50
